Historyczne dane pomiarowe

Dodano dane terminowe – wersja testowa.

Dane z okresu 1951-2019

Wersja bazy: 1.34 [2019-03-16, lista zmian], aktualizacja planowana na 2019-04-15

Dane meteo z obszaru Polski uzyskane na podstawie danych udostępnionych przez Instytut Meteorologii i Gospodarki Wodnej – Państwowy Instytut Badawczy.

 

Wybierz Datę:    

       

TemperaturaWilgotnośćWiatrCiśnienieOpadyŚniegCzas trwania zjawisk
 Stacja t tx tn tng RH VA  wxwx mslp ppp RRR   cm mm wxwxwxwxwxwxwx
1994-08-14 13.4 21.9 11.9- 74.3- 6.0 6.7---- 1.2------------
1994-08-13 17.8 24.9 12.1- 79.5- 6.0 4.0---- 0.6------------
1994-08-12 20.4 27.2 12.1- 75.3- 4.7 3.0---- 0.9------------
1994-08-11 21.1 26.9 13.4- 69.8- 3.7 5.0---- 0.0------------
1994-08-10 20.1 26.9 13.1- 67.5- 2.7 2.0---- 0.0------------
1994-08-09 20.4 25.9 16.1- 80.0- 5.7 2.0---- 0.0------------
1994-08-08 22.1 27.9 12.7- 69.0- 4.7 1.7---- 0.0------------
1994-08-07 21.7 28.8 12.1- 75.3- 2.0 2.3---- 0.0------------
1994-08-06 25.1 33.8 15.7- 70.0- 2.7 3.0---- 16.8------------
1994-08-05 25.7 33.1 15.1- 66.5- 2.7 2.0---- 0.0------------
1994-08-04 23.1 28.2 15.7- 69.3- 4.3 3.7---- 0.0------------
1994-08-03 23.8 29.8 15.5- 82.0- 4.7 3.0---- 0.0------------
1994-08-02 26.1 34.8 15.4- 64.3- 3.3 2.0---- 0.0------------
1994-08-01 29.3 35.8 20.4- 51.5- 2.7 3.0---- 0.0------------
1994-07-31 27.9 37.4 19.2- 52.3- 2.7 3.0---- 0.0------------
1994-07-30 29.1 37.6 22.0- 52.3- 2.0 3.0---- 0.0------------
1994-07-29 28.4 36.8 20.5- 52.5- 2.3 1.0---- 0.0------------
1994-07-28 27.3 35.8 18.1- 52.3- 2.0 2.0---- 0.0------------
1994-07-27 25.7 34.8 13.9- 52.3- 2.3 1.7---- 0.0------------
1994-07-26 25.2 32.8 13.8- 58.5- 0.3 0.7---- 0.0------------
1994-07-25 23.8 32.4 13.6- 58.8- 0.7 2.3---- 0.0------------
1994-07-24 22.4 31.5 11.6- 60.5- 1.0 1.7---- 0.0------------
1994-07-23 19.6 32.8 8.6- 64.0- 2.0 1.7---- 0.0------------
1994-07-22 20.3 29.8 8.2- 67.3- 1.3 2.0---- 0.0------------
1994-07-21 18.0 28.8 8.3- 65.3- 2.3 2.0---- 0.0------------
1994-07-20 17.8 25.9 8.5- 65.3- 1.7 3.7---- 0.0------------
1994-07-19 18.2 29.1 14.1- 64.3- 4.3 4.0---- 0.0------------
1994-07-18 18.1 26.9 13.5- 67.8- 2.3 3.7---- 0.0------------
1994-07-17 20.1 26.4 15.1- 74.3- 6.3 2.3---- 0.0------------
1994-07-16 23.6 28.4 17.1- 83.5- 4.3 2.0---- 4.4------------
1994-07-15 26.6 34.3 17.8- 61.0- 1.7 2.3---- 0.0------------
1994-07-14 29.0 35.1 16.5- 63.3- 3.7 3.3---- 0.0------------
1994-07-13 26.5 33.8 16.6- 58.0- 2.3 3.3---- 0.0------------
1994-07-12 24.0 32.2 14.1- 66.3- 2.0 1.7---- 0.0------------
1994-07-11 21.1 31.8 7.5- 67.5- 2.0 4.0---- 0.0------------
1994-07-10 20.0 31.4 7.1- 69.0- 2.0 3.7---- 0.0------------
1994-07-09 18.6 30.8 7.1- 75.0- 5.3 3.7---- 0.0------------
1994-07-08 16.7 31.2 7.1- 86.0- 6.7 1.7---- 3.6------------
1994-07-07 18.1 31.8 7.1- 62.0- 2.7 2.7---- 0.0------------
1994-07-06 16.9 31.4 6.9- 67.3- 4.7 2.7---- 0.0------------
1994-07-05 20.1 25.5 6.7- 69.3- 2.0 3.7---- 0.0------------
1994-07-04 18.7 26.5 6.6- 57.5- 0.7 3.0---- 0.0------------
1994-07-03 17.2 24.9 6.4- 56.5- 0.0 2.0---- 0.0------------
1994-07-02 16.9 23.7 7.1- 64.3- 0.0 3.3---- 0.0------------
1994-07-01 18.2 23.1 11.7- 64.5- 0.0 4.3---- 0.0------------
1994-06-30 21.7 30.0 14.7- 69.5- 2.0 4.7---- 0.0------------
1994-06-29 24.2 31.8 14.4- 68.5- 2.0 2.7---- 1.3------------
1994-06-28 18.7 26.5 11.7- 63.5- 2.0 1.7---- 0.0------------
1994-06-27 22.4 28.4 13.1- 71.3- 2.0 3.3---- 0.0------------
1994-06-26 22.4 29.4 12.8- 52.3- 3.3 3.0---- 0.0------------
1994-06-25 14.6 20.5 5.0- 64.5- 6.0 2.0---- 0.0------------
1994-06-24 14.4 18.5 9.1- 62.0- 5.0 7.0---- 0.0------------
1994-06-23 14.5 19.5 6.7- 63.3- 4.7 10.7---- 0.4------------
1994-06-22 19.2 23.9 12.1- 70.0- 5.0 4.3---- 0.0------------
1994-06-21 15.0 20.7 7.8- 67.0- 6.0 1.7---- 0.0------------
1994-06-20 14.6 17.7 12.3- 65.8- 5.7 7.0---- 0.0------------
1994-06-19 14.0 16.7 8.6- 82.8- 7.0 3.7---- 1.3------------
1994-06-18 11.6 17.4 3.7- 73.0- 5.3 2.3---- 2.5------------
1994-06-17 9.8 17.1 5.4- 81.8- 5.7 3.7---- 3.5------------
1994-06-16 13.0 17.3 8.5- 71.8- 5.7 5.0---- 1.8------------
216.9 ms

 

Źródłem pochodzenia danych jest Instytut Meteorologii i Gospodarki Wodnej – Państwowy Instytut Badawczy. Dane Instytutu Meteorologii i Gospodarki Wodnej – Państwowego Instytutu Badawczego zostały przetworzone.

Dane źródłowe można odnaleźć na stronie https://dane.imgw.pl